createdAt,value
2018-08-04T00:02:16.672Z,28.30
2018-08-04T00:04:50.999Z,28.30
2018-08-04T00:07:26.945Z,28.20
2018-08-04T00:10:01.361Z,28.20
2018-08-04T00:12:36.431Z,28.10
2018-08-04T00:15:10.764Z,28.00
2018-08-04T00:17:47.447Z,28.00
2018-08-04T00:20:23.336Z,28.10
2018-08-04T00:22:57.916Z,28.20
2018-08-04T00:25:33.941Z,28.30
2018-08-04T00:28:08.531Z,28.30
2018-08-04T00:30:43.283Z,28.30
2018-08-04T00:33:17.761Z,28.20
2018-08-04T00:35:53.466Z,28.20
2018-08-04T00:38:28.022Z,28.20
2018-08-04T00:41:02.506Z,28.20
2018-08-04T00:43:37.391Z,28.20
2018-08-04T00:46:12.171Z,28.30
2018-08-04T00:48:48.095Z,28.40
2018-08-04T00:51:22.724Z,28.30
2018-08-04T00:53:58.252Z,28.30
2018-08-04T00:56:32.878Z,28.30
2018-08-04T01:01:43.715Z,28.30
2018-08-04T01:04:18.230Z,28.50
2018-08-04T01:06:54.625Z,28.40
2018-08-04T01:09:28.998Z,28.30
2018-08-04T01:12:03.866Z,28.20
2018-08-04T01:14:38.659Z,28.30
2018-08-04T01:17:14.955Z,28.20
2018-08-04T01:19:49.599Z,28.30
2018-08-04T01:22:25.331Z,28.20
2018-08-04T01:25:01.033Z,28.30
2018-08-04T01:27:35.919Z,28.20
2018-08-04T01:30:10.658Z,28.10
2018-08-04T01:32:45.050Z,28.10
2018-08-04T01:35:20.828Z,28.00
2018-08-04T01:37:55.155Z,27.90
2018-08-04T01:40:29.862Z,27.90
2018-08-04T01:43:04.807Z,28.00
2018-08-04T01:45:40.679Z,28.00
2018-08-04T01:48:16.867Z,28.10
2018-08-04T01:50:53.091Z,28.10
2018-08-04T01:53:28.907Z,28.10
2018-08-04T01:56:03.887Z,28.10
2018-08-04T01:58:38.395Z,28.10
2018-08-04T02:01:21.862Z,28.10
2018-08-04T02:09:07.581Z,27.60
2018-08-04T02:11:41.963Z,27.60
2018-08-04T02:14:16.321Z,27.60
2018-08-04T02:16:51.020Z,27.60
2018-08-04T02:19:25.371Z,27.50
2018-08-04T02:22:01.117Z,27.50
2018-08-04T02:24:36.663Z,27.50
2018-08-04T02:27:11.352Z,27.40
2018-08-04T02:29:45.610Z,27.40
2018-08-04T02:32:20.011Z,27.60
2018-08-04T02:34:55.667Z,27.40
2018-08-04T02:37:31.389Z,27.40
2018-08-04T02:40:06.195Z,27.50
2018-08-04T02:42:42.798Z,27.50
2018-08-04T02:45:17.123Z,27.50
2018-08-04T02:47:51.587Z,27.80
2018-08-04T02:50:27.436Z,27.90
2018-08-04T02:53:09.533Z,27.90
2018-08-04T02:55:43.856Z,27.90
2018-08-04T02:58:18.431Z,27.70
2018-08-04T03:01:07.032Z,27.60
2018-08-04T03:03:41.520Z,27.60
2018-08-04T03:06:16.445Z,27.50
2018-08-04T03:08:52.431Z,27.50
2018-08-04T03:11:26.863Z,27.50
2018-08-04T03:14:01.312Z,27.50
2018-08-04T03:16:35.796Z,27.50
2018-08-04T03:19:11.028Z,27.40
2018-08-04T03:21:46.996Z,27.40
2018-08-04T03:24:22.955Z,27.50
2018-08-04T03:26:57.386Z,27.50
2018-08-04T03:29:32.268Z,27.40
2018-08-04T03:32:07.040Z,27.40
2018-08-04T03:34:43.711Z,27.40
2018-08-04T03:37:19.791Z,27.30
2018-08-04T03:39:56.035Z,27.10
2018-08-04T03:42:30.588Z,27.10
2018-08-04T03:45:05.044Z,27.10
2018-08-04T03:47:39.719Z,27.10
2018-08-04T03:50:16.120Z,27.00
2018-08-04T03:52:50.669Z,27.10
2018-08-04T03:55:26.563Z,27.10
2018-08-04T03:58:02.828Z,26.90
2018-08-04T04:00:45.634Z,26.90
2018-08-04T04:03:21.319Z,26.80
2018-08-04T04:05:55.803Z,26.80
2018-08-04T04:08:31.418Z,26.80
2018-08-04T04:11:05.871Z,26.80
2018-08-04T04:13:40.674Z,26.80
2018-08-04T04:16:14.955Z,26.80
2018-08-04T04:18:50.027Z,26.80
2018-08-04T04:21:25.992Z,26.70
2018-08-04T04:24:02.206Z,26.70
2018-08-04T04:26:36.711Z,26.70
2018-08-04T04:29:11.551Z,26.70
2018-08-04T04:31:46.029Z,26.70
2018-08-04T04:34:21.819Z,26.80
2018-08-04T04:36:58.188Z,26.90
2018-08-04T04:39:32.533Z,26.90
2018-08-04T04:42:06.888Z,27.00
2018-08-04T04:44:41.284Z,27.10
2018-08-04T04:47:15.660Z,27.20
2018-08-04T04:49:51.721Z,27.40
2018-08-04T04:52:26.162Z,27.40
2018-08-04T04:55:03.779Z,27.40
2018-08-04T04:57:38.267Z,27.50
2018-08-04T05:00:14.151Z,27.60
2018-08-04T05:02:50.023Z,27.50
2018-08-04T05:05:24.529Z,27.50
2018-08-04T05:08:00.859Z,27.60
2018-08-04T05:10:35.599Z,27.80
2018-08-04T05:13:10.088Z,27.90
2018-08-04T05:15:45.044Z,27.90
2018-08-04T05:18:19.528Z,27.90
2018-08-04T05:20:55.682Z,28.00
2018-08-04T05:23:30.211Z,28.00
2018-08-04T05:26:06.135Z,28.00
2018-08-04T05:28:40.631Z,28.00
2018-08-04T05:33:51.019Z,28.10
2018-08-04T05:36:28.024Z,28.10
2018-08-04T05:39:02.569Z,28.00
2018-08-04T05:41:37.098Z,28.00
2018-08-04T15:11:40.290Z,29.90
2018-08-04T15:14:14.822Z,29.60
2018-08-04T15:16:49.405Z,29.60
2018-08-04T15:19:23.756Z,29.80
2018-08-04T19:49:08.887Z,29.50
2018-08-04T19:54:17.804Z,30.30
2018-08-04T19:56:52.246Z,30.30
2018-08-04T19:59:27.923Z,30.10
2018-08-04T20:02:04.191Z,30.00
2018-08-04T20:07:27.450Z,29.80
2018-08-04T20:10:01.956Z,29.60
2018-08-04T20:12:36.842Z,29.80
2018-08-04T20:15:11.555Z,29.70
2018-08-04T20:17:45.912Z,29.80
2018-08-04T20:20:21.620Z,29.90
2018-08-04T20:22:56.099Z,29.90
2018-08-04T20:25:32.101Z,29.70
2018-08-04T20:28:06.456Z,29.60
2018-08-04T20:33:15.259Z,29.50
2018-08-04T20:35:51.214Z,29.50
2018-08-04T20:41:01.240Z,29.60
2018-08-04T20:46:11.287Z,29.50
2018-08-04T20:48:51.928Z,29.50
2018-08-04T20:51:27.779Z,29.40
2018-08-04T20:54:02.201Z,29.40
2018-08-04T20:56:37.744Z,29.20
2018-08-04T20:59:13.719Z,29.30
2018-08-04T21:01:59.158Z,29.30
2018-08-04T21:04:34.776Z,29.00
2018-08-04T21:07:11.150Z,29.00
2018-08-04T21:09:47.030Z,29.00
2018-08-04T21:12:21.412Z,29.00
2018-08-04T21:14:57.744Z,29.00
2018-08-04T21:17:32.147Z,29.00
2018-08-04T21:20:16.103Z,29.00
2018-08-04T21:22:50.763Z,29.00
2018-08-04T21:25:26.581Z,29.00
2018-08-04T21:28:00.896Z,28.90
2018-08-04T21:30:35.495Z,28.90
2018-08-04T21:33:10.268Z,28.80
2018-08-04T21:35:46.001Z,28.90
2018-08-04T21:38:21.924Z,29.00
2018-08-04T21:40:56.503Z,28.90
2018-08-04T21:43:30.911Z,28.90
2018-08-04T21:46:06.874Z,28.80
2018-08-04T21:48:50.915Z,28.90
2018-08-04T21:51:27.091Z,29.00
2018-08-04T21:54:03.234Z,29.10
2018-08-04T21:56:37.699Z,28.90
2018-08-04T21:59:13.457Z,28.70
2018-08-04T22:01:55.436Z,28.60
2018-08-04T22:04:29.562Z,28.50
2018-08-04T22:07:44.319Z,28.50
2018-08-04T22:10:18.678Z,28.50
2018-08-04T22:12:53.049Z,28.30
2018-08-04T22:15:27.671Z,28.30
2018-08-04T22:18:01.918Z,28.20
2018-08-04T22:20:38.051Z,28.10
2018-08-04T22:23:12.799Z,28.20
2018-08-04T22:25:48.739Z,28.20
2018-08-04T22:28:23.055Z,28.20
2018-08-04T22:30:59.425Z,28.20
2018-08-04T22:33:37.121Z,28.20
2018-08-04T22:36:11.915Z,28.10
2018-08-04T22:38:48.095Z,28.10
2018-08-04T22:41:22.549Z,28.10
2018-08-04T22:43:56.939Z,27.90
2018-08-04T22:46:31.528Z,27.90
2018-08-04T22:49:12.385Z,27.80
2018-08-04T22:51:48.246Z,27.70
2018-08-04T22:54:22.735Z,27.60
2018-08-04T22:56:58.892Z,27.60
2018-08-04T22:59:34.745Z,27.60
2018-08-04T23:02:11.229Z,27.50
2018-08-04T23:04:45.563Z,27.50
2018-08-04T23:07:27.549Z,27.50
2018-08-04T23:10:01.898Z,27.50
2018-08-04T23:12:40.165Z,27.50
2018-08-04T23:15:14.503Z,27.40
2018-08-04T23:17:49.039Z,27.40
2018-08-04T23:20:24.840Z,27.40
2018-08-04T23:22:59.991Z,27.50
2018-08-04T23:25:35.847Z,27.50
2018-08-04T23:28:11.130Z,27.40
2018-08-04T23:30:47.005Z,27.20
2018-08-04T23:33:21.446Z,27.20
2018-08-04T23:35:57.457Z,27.10
2018-08-04T23:38:33.290Z,27.10
2018-08-04T23:43:42.308Z,27.20
2018-08-04T23:46:16.735Z,27.30
2018-08-04T23:51:43.996Z,27.20
2018-08-04T23:54:18.364Z,27.00
2018-08-04T23:56:54.069Z,26.90
2018-08-04T23:59:29.631Z,26.80
